sensor_id;sensor_type;location;lat;lon;timestamp;temperature;humidity
63047;DHT22;62025;39.238;9.126;2023-08-08T00:01:44;22.50;57.70
63047;DHT22;62025;39.238;9.126;2023-08-08T00:04:10;22.50;57.80
63047;DHT22;62025;39.238;9.126;2023-08-08T00:06:37;22.50;57.70
63047;DHT22;62025;39.238;9.126;2023-08-08T00:09:03;22.50;57.70
63047;DHT22;62025;39.238;9.126;2023-08-08T00:11:30;22.40;57.80
63047;DHT22;62025;39.238;9.126;2023-08-08T00:13:56;22.40;57.80
63047;DHT22;62025;39.238;9.126;2023-08-08T00:16:23;22.40;57.90
63047;DHT22;62025;39.238;9.126;2023-08-08T00:18:49;22.40;57.90
63047;DHT22;62025;39.238;9.126;2023-08-08T00:21:16;22.30;57.60
63047;DHT22;62025;39.238;9.126;2023-08-08T00:23:42;22.40;57.70
63047;DHT22;62025;39.238;9.126;2023-08-08T00:26:08;22.30;57.60
63047;DHT22;62025;39.238;9.126;2023-08-08T00:28:34;22.30;57.70
63047;DHT22;62025;39.238;9.126;2023-08-08T00:31:00;22.30;57.60
63047;DHT22;62025;39.238;9.126;2023-08-08T00:33:26;22.20;57.70
63047;DHT22;62025;39.238;9.126;2023-08-08T00:35:52;22.20;57.70
63047;DHT22;62025;39.238;9.126;2023-08-08T00:38:18;22.20;57.80
63047;DHT22;62025;39.238;9.126;2023-08-08T00:40:44;22.10;57.70
63047;DHT22;62025;39.238;9.126;2023-08-08T00:43:11;22.20;57.80
63047;DHT22;62025;39.238;9.126;2023-08-08T00:45:38;22.10;57.90
63047;DHT22;62025;39.238;9.126;2023-08-08T00:48:06;22.10;57.80
63047;DHT22;62025;39.238;9.126;2023-08-08T00:50:32;22.10;57.80
63047;DHT22;62025;39.238;9.126;2023-08-08T00:52:58;22.00;57.70
63047;DHT22;62025;39.238;9.126;2023-08-08T00:55:24;22.00;57.90
63047;DHT22;62025;39.238;9.126;2023-08-08T00:57:50;22.00;57.70
63047;DHT22;62025;39.238;9.126;2023-08-08T01:00:16;22.00;57.70
63047;DHT22;62025;39.238;9.126;2023-08-08T01:02:42;22.00;57.80
63047;DHT22;62025;39.238;9.126;2023-08-08T01:05:08;22.00;57.70
63047;DHT22;62025;39.238;9.126;2023-08-08T01:07:47;21.90;57.70
63047;DHT22;62025;39.238;9.126;2023-08-08T01:10:37;21.90;57.70
63047;DHT22;62025;39.238;9.126;2023-08-08T01:13:07;21.90;57.80
63047;DHT22;62025;39.238;9.126;2023-08-08T01:15:36;21.90;57.70
63047;DHT22;62025;39.238;9.126;2023-08-08T01:18:07;21.90;57.70
63047;DHT22;62025;39.238;9.126;2023-08-08T01:20:34;21.90;57.90
63047;DHT22;62025;39.238;9.126;2023-08-08T01:25:39;21.70;58.20
63047;DHT22;62025;39.238;9.126;2023-08-08T01:28:06;21.60;58.40
63047;DHT22;62025;39.238;9.126;2023-08-08T01:30:33;21.60;58.30
63047;DHT22;62025;39.238;9.126;2023-08-08T01:33:00;21.60;58.30
63047;DHT22;62025;39.238;9.126;2023-08-08T01:35:30;21.60;58.20
63047;DHT22;62025;39.238;9.126;2023-08-08T01:40:59;21.60;58.20
63047;DHT22;62025;39.238;9.126;2023-08-08T01:43:26;21.60;58.10
63047;DHT22;62025;39.238;9.126;2023-08-08T01:45:52;21.50;58.20
63047;DHT22;62025;39.238;9.126;2023-08-08T01:48:20;21.50;58.30
63047;DHT22;62025;39.238;9.126;2023-08-08T01:50:46;21.50;58.30
63047;DHT22;62025;39.238;9.126;2023-08-08T01:53:12;21.40;58.40
63047;DHT22;62025;39.238;9.126;2023-08-08T01:55:38;21.40;58.50
63047;DHT22;62025;39.238;9.126;2023-08-08T01:58:04;21.40;58.50
63047;DHT22;62025;39.238;9.126;2023-08-08T02:00:31;21.40;58.60
63047;DHT22;62025;39.238;9.126;2023-08-08T02:02:57;21.30;58.80
63047;DHT22;62025;39.238;9.126;2023-08-08T02:05:24;21.40;58.80
63047;DHT22;62025;39.238;9.126;2023-08-08T02:07:50;21.40;58.70
63047;DHT22;62025;39.238;9.126;2023-08-08T02:10:16;21.40;58.60
63047;DHT22;62025;39.238;9.126;2023-08-08T02:12:42;21.40;58.70
63047;DHT22;62025;39.238;9.126;2023-08-08T02:15:09;21.40;58.50
63047;DHT22;62025;39.238;9.126;2023-08-08T02:17:37;21.40;58.50
63047;DHT22;62025;39.238;9.126;2023-08-08T02:20:05;21.30;58.50
63047;DHT22;62025;39.238;9.126;2023-08-08T02:22:32;21.40;58.60
63047;DHT22;62025;39.238;9.126;2023-08-08T02:24:58;21.40;58.50
63047;DHT22;62025;39.238;9.126;2023-08-08T02:27:24;21.40;58.60
63047;DHT22;62025;39.238;9.126;2023-08-08T02:29:50;21.30;58.50
63047;DHT22;62025;39.238;9.126;2023-08-08T02:32:16;21.40;58.40
63047;DHT22;62025;39.238;9.126;2023-08-08T02:34:42;21.30;58.50
63047;DHT22;62025;39.238;9.126;2023-08-08T02:37:08;21.40;58.30
63047;DHT22;62025;39.238;9.126;2023-08-08T02:39:34;21.30;58.40
63047;DHT22;62025;39.238;9.126;2023-08-08T02:42:01;21.30;58.20
63047;DHT22;62025;39.238;9.126;2023-08-08T02:44:27;21.40;58.10
63047;DHT22;62025;39.238;9.126;2023-08-08T02:46:53;21.40;58.20
63047;DHT22;62025;39.238;9.126;2023-08-08T02:49:19;21.40;58.10
63047;DHT22;62025;39.238;9.126;2023-08-08T02:51:45;21.40;58.10
63047;DHT22;62025;39.238;9.126;2023-08-08T02:54:11;21.40;58.20
63047;DHT22;62025;39.238;9.126;2023-08-08T02:56:41;21.30;58.20
63047;DHT22;62025;39.238;9.126;2023-08-08T02:59:07;21.30;58.20
63047;DHT22;62025;39.238;9.126;2023-08-08T03:01:33;21.30;58.20
63047;DHT22;62025;39.238;9.126;2023-08-08T03:04:04;21.30;58.40
63047;DHT22;62025;39.238;9.126;2023-08-08T03:06:31;21.30;58.40
63047;DHT22;62025;39.238;9.126;2023-08-08T03:08:57;21.30;58.30
63047;DHT22;62025;39.238;9.126;2023-08-08T03:11:23;21.40;58.10
63047;DHT22;62025;39.238;9.126;2023-08-08T03:13:49;21.40;58.00
63047;DHT22;62025;39.238;9.126;2023-08-08T03:16:15;21.30;57.90
63047;DHT22;62025;39.238;9.126;2023-08-08T03:18:41;21.30;58.00
63047;DHT22;62025;39.238;9.126;2023-08-08T03:21:07;21.20;57.90
63047;DHT22;62025;39.238;9.126;2023-08-08T03:23:34;21.20;58.00
63047;DHT22;62025;39.238;9.126;2023-08-08T03:26:00;21.20;57.90
63047;DHT22;62025;39.238;9.126;2023-08-08T03:28:26;21.30;57.90
63047;DHT22;62025;39.238;9.126;2023-08-08T03:30:54;21.30;58.00
63047;DHT22;62025;39.238;9.126;2023-08-08T03:33:21;21.20;58.10
63047;DHT22;62025;39.238;9.126;2023-08-08T03:35:47;21.20;58.10
63047;DHT22;62025;39.238;9.126;2023-08-08T03:38:15;21.10;58.30
63047;DHT22;62025;39.238;9.126;2023-08-08T03:40:41;21.10;58.20
63047;DHT22;62025;39.238;9.126;2023-08-08T03:43:07;21.10;58.40
63047;DHT22;62025;39.238;9.126;2023-08-08T03:45:33;21.10;58.50
63047;DHT22;62025;39.238;9.126;2023-08-08T03:47:59;21.10;58.80
63047;DHT22;62025;39.238;9.126;2023-08-08T03:50:25;21.10;58.90
63047;DHT22;62025;39.238;9.126;2023-08-08T03:52:51;21.10;58.90
63047;DHT22;62025;39.238;9.126;2023-08-08T03:55:18;21.10;59.00
63047;DHT22;62025;39.238;9.126;2023-08-08T03:57:45;21.00;58.90
63047;DHT22;62025;39.238;9.126;2023-08-08T04:00:12;21.10;58.80
63047;DHT22;62025;39.238;9.126;2023-08-08T04:02:41;21.10;58.80
63047;DHT22;62025;39.238;9.126;2023-08-08T04:05:07;21.10;58.70
63047;DHT22;62025;39.238;9.126;2023-08-08T04:07:34;21.10;58.40
63047;DHT22;62025;39.238;9.126;2023-08-08T04:10:00;21.10;58.20
63047;DHT22;62025;39.238;9.126;2023-08-08T04:12:26;21.10;58.20
63047;DHT22;62025;39.238;9.126;2023-08-08T04:14:53;21.00;58.10
63047;DHT22;62025;39.238;9.126;2023-08-08T04:17:19;21.00;58.20
63047;DHT22;62025;39.238;9.126;2023-08-08T04:19:45;21.00;58.10
63047;DHT22;62025;39.238;9.126;2023-08-08T04:22:11;21.00;57.80
63047;DHT22;62025;39.238;9.126;2023-08-08T04:24:37;21.00;57.90
63047;DHT22;62025;39.238;9.126;2023-08-08T04:27:04;21.00;57.80
63047;DHT22;62025;39.238;9.126;2023-08-08T04:29:30;20.90;57.80
63047;DHT22;62025;39.238;9.126;2023-08-08T04:31:56;20.90;57.80
63047;DHT22;62025;39.238;9.126;2023-08-08T04:34:22;20.90;57.80
63047;DHT22;62025;39.238;9.126;2023-08-08T04:36:48;20.90;57.80
63047;DHT22;62025;39.238;9.126;2023-08-08T04:39:14;20.90;57.70
63047;DHT22;62025;39.238;9.126;2023-08-08T04:41:40;20.90;57.70
63047;DHT22;62025;39.238;9.126;2023-08-08T04:44:06;20.90;57.60
63047;DHT22;62025;39.238;9.126;2023-08-08T04:46:31;20.90;57.70
63047;DHT22;62025;39.238;9.126;2023-08-08T04:48:57;20.90;57.70
63047;DHT22;62025;39.238;9.126;2023-08-08T04:51:23;20.90;57.60
63047;DHT22;62025;39.238;9.126;2023-08-08T04:53:49;20.80;57.60
63047;DHT22;62025;39.238;9.126;2023-08-08T04:56:15;20.90;57.50
63047;DHT22;62025;39.238;9.126;2023-08-08T04:58:41;20.80;57.40
63047;DHT22;62025;39.238;9.126;2023-08-08T05:01:07;20.80;57.40
63047;DHT22;62025;39.238;9.126;2023-08-08T05:03:37;20.70;57.40
63047;DHT22;62025;39.238;9.126;2023-08-08T05:06:03;20.70;57.50
63047;DHT22;62025;39.238;9.126;2023-08-08T05:08:29;20.80;57.40
63047;DHT22;62025;39.238;9.126;2023-08-08T05:10:55;20.80;57.30
63047;DHT22;62025;39.238;9.126;2023-08-08T05:13:21;20.70;57.50
63047;DHT22;62025;39.238;9.126;2023-08-08T05:15:46;20.80;57.60
63047;DHT22;62025;39.238;9.126;2023-08-08T05:18:12;20.80;57.40
63047;DHT22;62025;39.238;9.126;2023-08-08T05:20:38;20.90;57.40
63047;DHT22;62025;39.238;9.126;2023-08-08T05:23:04;20.90;57.50
63047;DHT22;62025;39.238;9.126;2023-08-08T05:25:31;21.00;57.50
63047;DHT22;62025;39.238;9.126;2023-08-08T05:27:56;21.10;57.50
63047;DHT22;62025;39.238;9.126;2023-08-08T05:30:23;21.20;57.50
63047;DHT22;62025;39.238;9.126;2023-08-08T05:32:49;21.30;57.50
63047;DHT22;62025;39.238;9.126;2023-08-08T05:35:15;21.40;57.30
63047;DHT22;62025;39.238;9.126;2023-08-08T05:37:41;21.50;57.20
63047;DHT22;62025;39.238;9.126;2023-08-08T05:40:07;21.60;57.10
63047;DHT22;62025;39.238;9.126;2023-08-08T05:42:33;21.80;56.90
63047;DHT22;62025;39.238;9.126;2023-08-08T05:45:00;21.90;56.90
63047;DHT22;62025;39.238;9.126;2023-08-08T05:47:26;21.90;56.70
63047;DHT22;62025;39.238;9.126;2023-08-08T05:49:51;22.00;56.60
63047;DHT22;62025;39.238;9.126;2023-08-08T05:52:17;22.10;56.10
63047;DHT22;62025;39.238;9.126;2023-08-08T05:54:43;22.20;56.00
63047;DHT22;62025;39.238;9.126;2023-08-08T05:57:09;22.30;55.60
63047;DHT22;62025;39.238;9.126;2023-08-08T05:59:35;22.40;55.20
63047;DHT22;62025;39.238;9.126;2023-08-08T06:02:01;22.50;54.90
63047;DHT22;62025;39.238;9.126;2023-08-08T06:04:27;22.60;54.70
63047;DHT22;62025;39.238;9.126;2023-08-08T06:06:53;22.70;54.60
63047;DHT22;62025;39.238;9.126;2023-08-08T06:09:19;22.80;54.30
63047;DHT22;62025;39.238;9.126;2023-08-08T06:11:45;22.90;54.10
63047;DHT22;62025;39.238;9.126;2023-08-08T06:14:11;22.90;54.00
63047;DHT22;62025;39.238;9.126;2023-08-08T06:16:38;23.10;53.70
63047;DHT22;62025;39.238;9.126;2023-08-08T06:19:04;23.10;53.40
63047;DHT22;62025;39.238;9.126;2023-08-08T06:21:30;23.20;53.10
63047;DHT22;62025;39.238;9.126;2023-08-08T06:23:56;23.40;53.00
63047;DHT22;62025;39.238;9.126;2023-08-08T06:26:22;23.40;52.80
63047;DHT22;62025;39.238;9.126;2023-08-08T06:28:48;23.60;52.70
63047;DHT22;62025;39.238;9.126;2023-08-08T06:31:14;23.70;51.90
63047;DHT22;62025;39.238;9.126;2023-08-08T06:33:40;23.70;51.00
63047;DHT22;62025;39.238;9.126;2023-08-08T06:36:06;23.80;50.90
63047;DHT22;62025;39.238;9.126;2023-08-08T06:38:32;23.90;50.30
63047;DHT22;62025;39.238;9.126;2023-08-08T06:41:04;24.00;49.80
63047;DHT22;62025;39.238;9.126;2023-08-08T06:43:30;24.10;49.70
63047;DHT22;62025;39.238;9.126;2023-08-08T06:45:57;24.20;49.70
63047;DHT22;62025;39.238;9.126;2023-08-08T06:48:23;24.30;49.50
63047;DHT22;62025;39.238;9.126;2023-08-08T06:50:49;24.40;49.20
63047;DHT22;62025;39.238;9.126;2023-08-08T06:53:15;24.50;48.50
63047;DHT22;62025;39.238;9.126;2023-08-08T06:55:41;24.70;48.50
63047;DHT22;62025;39.238;9.126;2023-08-08T06:58:07;24.90;48.60
63047;DHT22;62025;39.238;9.126;2023-08-08T07:00:33;25.10;48.00
63047;DHT22;62025;39.238;9.126;2023-08-08T07:02:59;25.30;47.10
63047;DHT22;62025;39.238;9.126;2023-08-08T07:05:25;25.50;46.60
63047;DHT22;62025;39.238;9.126;2023-08-08T07:07:52;25.40;46.20
63047;DHT22;62025;39.238;9.126;2023-08-08T07:10:19;25.40;46.20
63047;DHT22;62025;39.238;9.126;2023-08-08T07:12:45;25.40;45.60
63047;DHT22;62025;39.238;9.126;2023-08-08T07:15:11;25.40;45.40
63047;DHT22;62025;39.238;9.126;2023-08-08T07:17:38;25.40;45.20
63047;DHT22;62025;39.238;9.126;2023-08-08T07:20:04;25.60;44.90
63047;DHT22;62025;39.238;9.126;2023-08-08T07:22:32;25.70;44.00
63047;DHT22;62025;39.238;9.126;2023-08-08T07:24:59;25.80;43.90
63047;DHT22;62025;39.238;9.126;2023-08-08T07:27:26;25.70;43.60
63047;DHT22;62025;39.238;9.126;2023-08-08T07:29:53;25.80;43.40
63047;DHT22;62025;39.238;9.126;2023-08-08T07:32:19;26.10;43.00
63047;DHT22;62025;39.238;9.126;2023-08-08T07:34:45;26.10;42.70
63047;DHT22;62025;39.238;9.126;2023-08-08T07:37:11;26.00;43.10
63047;DHT22;62025;39.238;9.126;2023-08-08T07:39:37;26.00;43.10
63047;DHT22;62025;39.238;9.126;2023-08-08T07:42:03;26.20;42.80
63047;DHT22;62025;39.238;9.126;2023-08-08T07:44:29;26.30;42.30
63047;DHT22;62025;39.238;9.126;2023-08-08T07:46:57;26.30;42.70
63047;DHT22;62025;39.238;9.126;2023-08-08T07:49:23;26.40;42.70
63047;DHT22;62025;39.238;9.126;2023-08-08T07:51:49;26.40;42.00
63047;DHT22;62025;39.238;9.126;2023-08-08T07:54:15;26.50;41.40
63047;DHT22;62025;39.238;9.126;2023-08-08T07:56:40;26.60;41.30
63047;DHT22;62025;39.238;9.126;2023-08-08T07:59:08;26.70;41.10
63047;DHT22;62025;39.238;9.126;2023-08-08T08:01:34;26.80;40.70
63047;DHT22;62025;39.238;9.126;2023-08-08T08:04:00;26.80;40.00
63047;DHT22;62025;39.238;9.126;2023-08-08T08:06:28;26.90;39.50
63047;DHT22;62025;39.238;9.126;2023-08-08T08:08:54;26.90;39.10
63047;DHT22;62025;39.238;9.126;2023-08-08T08:11:20;27.00;38.80
63047;DHT22;62025;39.238;9.126;2023-08-08T08:13:46;27.10;39.10
63047;DHT22;62025;39.238;9.126;2023-08-08T08:16:12;27.30;39.00
63047;DHT22;62025;39.238;9.126;2023-08-08T08:18:38;27.40;37.20
63047;DHT22;62025;39.238;9.126;2023-08-08T08:21:04;27.50;36.00
63047;DHT22;62025;39.238;9.126;2023-08-08T08:23:30;27.70;35.30
63047;DHT22;62025;39.238;9.126;2023-08-08T08:25:58;27.90;35.30
63047;DHT22;62025;39.238;9.126;2023-08-08T08:28:25;28.00;34.60
63047;DHT22;62025;39.238;9.126;2023-08-08T08:30:52;28.10;34.00
63047;DHT22;62025;39.238;9.126;2023-08-08T08:33:18;28.20;34.20
63047;DHT22;62025;39.238;9.126;2023-08-08T08:35:45;28.20;34.70
63047;DHT22;62025;39.238;9.126;2023-08-08T08:38:11;28.40;34.70
63047;DHT22;62025;39.238;9.126;2023-08-08T08:40:39;28.40;34.90
63047;DHT22;62025;39.238;9.126;2023-08-08T08:43:07;28.50;34.30
63047;DHT22;62025;39.238;9.126;2023-08-08T08:45:38;28.70;33.50
63047;DHT22;62025;39.238;9.126;2023-08-08T08:48:09;28.90;33.30
63047;DHT22;62025;39.238;9.126;2023-08-08T08:50:39;29.00;33.20
63047;DHT22;62025;39.238;9.126;2023-08-08T08:53:05;29.00;32.50
63047;DHT22;62025;39.238;9.126;2023-08-08T08:55:32;29.20;32.10
63047;DHT22;62025;39.238;9.126;2023-08-08T08:57:58;29.20;31.80
63047;DHT22;62025;39.238;9.126;2023-08-08T09:00:24;29.30;31.80
63047;DHT22;62025;39.238;9.126;2023-08-08T09:02:52;29.20;31.70
63047;DHT22;62025;39.238;9.126;2023-08-08T09:05:20;29.30;31.70
63047;DHT22;62025;39.238;9.126;2023-08-08T09:07:48;29.50;31.70
63047;DHT22;62025;39.238;9.126;2023-08-08T09:10:18;29.70;31.70
63047;DHT22;62025;39.238;9.126;2023-08-08T09:12:45;29.60;31.40
63047;DHT22;62025;39.238;9.126;2023-08-08T09:15:11;29.70;31.60
63047;DHT22;62025;39.238;9.126;2023-08-08T09:17:41;29.80;31.70
63047;DHT22;62025;39.238;9.126;2023-08-08T09:20:09;29.80;32.30
63047;DHT22;62025;39.238;9.126;2023-08-08T09:22:39;29.80;32.30
63047;DHT22;62025;39.238;9.126;2023-08-08T09:25:06;30.00;32.40
63047;DHT22;62025;39.238;9.126;2023-08-08T09:27:34;30.10;32.30
63047;DHT22;62025;39.238;9.126;2023-08-08T09:30:01;30.20;32.10
63047;DHT22;62025;39.238;9.126;2023-08-08T09:32:32;30.00;32.10
63047;DHT22;62025;39.238;9.126;2023-08-08T09:34:59;30.20;32.00
63047;DHT22;62025;39.238;9.126;2023-08-08T09:37:26;30.20;32.00
63047;DHT22;62025;39.238;9.126;2023-08-08T09:39:59;30.40;31.70
63047;DHT22;62025;39.238;9.126;2023-08-08T09:42:26;30.40;31.60
63047;DHT22;62025;39.238;9.126;2023-08-08T09:44:53;29.60;33.60
63047;DHT22;62025;39.238;9.126;2023-08-08T09:47:21;29.70;34.00
63047;DHT22;62025;39.238;9.126;2023-08-08T09:49:47;29.20;34.30
63047;DHT22;62025;39.238;9.126;2023-08-08T09:52:15;29.60;33.40
63047;DHT22;62025;39.238;9.126;2023-08-08T09:54:41;29.30;34.40
63047;DHT22;62025;39.238;9.126;2023-08-08T09:57:08;29.30;34.60
63047;DHT22;62025;39.238;9.126;2023-08-08T09:59:35;29.20;34.20
63047;DHT22;62025;39.238;9.126;2023-08-08T10:02:01;29.00;34.40
63047;DHT22;62025;39.238;9.126;2023-08-08T10:04:27;29.40;34.30
63047;DHT22;62025;39.238;9.126;2023-08-08T10:06:54;29.50;33.70
63047;DHT22;62025;39.238;9.126;2023-08-08T10:09:20;29.70;33.30
63047;DHT22;62025;39.238;9.126;2023-08-08T10:11:47;29.90;33.20
63047;DHT22;62025;39.238;9.126;2023-08-08T10:14:13;30.00;32.90
63047;DHT22;62025;39.238;9.126;2023-08-08T10:16:42;29.90;32.70
63047;DHT22;62025;39.238;9.126;2023-08-08T10:19:11;29.30;33.40
63047;DHT22;62025;39.238;9.126;2023-08-08T10:21:41;29.30;33.30
63047;DHT22;62025;39.238;9.126;2023-08-08T10:24:09;29.10;33.40
63047;DHT22;62025;39.238;9.126;2023-08-08T10:26:57;29.00;33.80
63047;DHT22;62025;39.238;9.126;2023-08-08T10:29:26;29.00;34.30
63047;DHT22;62025;39.238;9.126;2023-08-08T10:32:02;28.80;34.80
63047;DHT22;62025;39.238;9.126;2023-08-08T10:34:42;28.30;36.00
63047;DHT22;62025;39.238;9.126;2023-08-08T10:37:17;28.50;36.10
63047;DHT22;62025;39.238;9.126;2023-08-08T10:39:53;28.50;36.50
63047;DHT22;62025;39.238;9.126;2023-08-08T10:42:40;28.50;36.80
63047;DHT22;62025;39.238;9.126;2023-08-08T10:45:11;28.40;37.50
63047;DHT22;62025;39.238;9.126;2023-08-08T10:47:42;28.40;37.30
63047;DHT22;62025;39.238;9.126;2023-08-08T10:50:13;28.20;37.90
63047;DHT22;62025;39.238;9.126;2023-08-08T10:58:08;28.00;38.40
63047;DHT22;62025;39.238;9.126;2023-08-08T11:00:39;28.20;37.90
63047;DHT22;62025;39.238;9.126;2023-08-08T11:03:06;28.20;37.80
63047;DHT22;62025;39.238;9.126;2023-08-08T11:05:35;28.40;37.80
63047;DHT22;62025;39.238;9.126;2023-08-08T11:08:03;28.20;38.40
63047;DHT22;62025;39.238;9.126;2023-08-08T11:10:35;27.90;38.70
63047;DHT22;62025;39.238;9.126;2023-08-08T11:13:04;28.00;38.40
63047;DHT22;62025;39.238;9.126;2023-08-08T11:15:35;28.10;38.00
63047;DHT22;62025;39.238;9.126;2023-08-08T11:18:03;28.00;38.40
63047;DHT22;62025;39.238;9.126;2023-08-08T11:20:31;28.00;39.40
63047;DHT22;62025;39.238;9.126;2023-08-08T11:22:58;27.90;39.60
63047;DHT22;62025;39.238;9.126;2023-08-08T11:25:29;28.10;39.30
63047;DHT22;62025;39.238;9.126;2023-08-08T11:27:56;28.20;39.90
63047;DHT22;62025;39.238;9.126;2023-08-08T11:30:24;28.00;40.30
63047;DHT22;62025;39.238;9.126;2023-08-08T11:32:53;27.90;41.10
63047;DHT22;62025;39.238;9.126;2023-08-08T11:35:24;27.90;42.00
63047;DHT22;62025;39.238;9.126;2023-08-08T11:37:52;27.90;41.90
63047;DHT22;62025;39.238;9.126;2023-08-08T11:40:19;27.50;42.20
63047;DHT22;62025;39.238;9.126;2023-08-08T11:42:47;27.40;42.90
63047;DHT22;62025;39.238;9.126;2023-08-08T11:45:16;27.30;43.40
63047;DHT22;62025;39.238;9.126;2023-08-08T11:47:42;27.50;42.40
63047;DHT22;62025;39.238;9.126;2023-08-08T11:50:09;27.30;43.20
63047;DHT22;62025;39.238;9.126;2023-08-08T11:52:42;27.20;42.70
63047;DHT22;62025;39.238;9.126;2023-08-08T11:55:09;27.20;43.00
63047;DHT22;62025;39.238;9.126;2023-08-08T11:57:36;27.30;44.40
63047;DHT22;62025;39.238;9.126;2023-08-08T12:00:08;26.90;46.10
63047;DHT22;62025;39.238;9.126;2023-08-08T12:02:42;26.80;47.00
63047;DHT22;62025;39.238;9.126;2023-08-08T12:05:13;26.80;47.20
63047;DHT22;62025;39.238;9.126;2023-08-08T12:07:47;26.90;47.70
63047;DHT22;62025;39.238;9.126;2023-08-08T12:10:21;27.10;47.60
63047;DHT22;62025;39.238;9.126;2023-08-08T12:12:56;27.10;48.10
63047;DHT22;62025;39.238;9.126;2023-08-08T12:15:29;27.00;48.90
63047;DHT22;62025;39.238;9.126;2023-08-08T12:18:02;26.90;48.30
63047;DHT22;62025;39.238;9.126;2023-08-08T12:20:30;26.80;50.40
63047;DHT22;62025;39.238;9.126;2023-08-08T12:22:57;26.50;51.60
63047;DHT22;62025;39.238;9.126;2023-08-08T12:25:24;26.70;50.80
63047;DHT22;62025;39.238;9.126;2023-08-08T12:27:50;26.60;51.30
63047;DHT22;62025;39.238;9.126;2023-08-08T12:30:16;26.50;50.10
63047;DHT22;62025;39.238;9.126;2023-08-08T12:32:42;26.70;49.90
63047;DHT22;62025;39.238;9.126;2023-08-08T12:35:08;26.70;49.70
63047;DHT22;62025;39.238;9.126;2023-08-08T12:37:34;26.70;49.80
63047;DHT22;62025;39.238;9.126;2023-08-08T12:40:00;26.70;49.90
63047;DHT22;62025;39.238;9.126;2023-08-08T12:42:28;26.60;49.70
63047;DHT22;62025;39.238;9.126;2023-08-08T12:44:54;26.70;49.90
63047;DHT22;62025;39.238;9.126;2023-08-08T12:47:20;26.80;48.30
63047;DHT22;62025;39.238;9.126;2023-08-08T12:49:47;26.90;47.30
63047;DHT22;62025;39.238;9.126;2023-08-08T12:52:13;26.90;47.70
63047;DHT22;62025;39.238;9.126;2023-08-08T12:54:39;27.00;46.90
63047;DHT22;62025;39.238;9.126;2023-08-08T12:57:05;27.20;45.20
63047;DHT22;62025;39.238;9.126;2023-08-08T12:59:31;27.20;45.30
63047;DHT22;62025;39.238;9.126;2023-08-08T13:01:57;27.40;46.00
63047;DHT22;62025;39.238;9.126;2023-08-08T13:04:23;27.40;47.60
63047;DHT22;62025;39.238;9.126;2023-08-08T13:06:50;27.20;48.70
63047;DHT22;62025;39.238;9.126;2023-08-08T13:09:16;27.00;49.20
63047;DHT22;62025;39.238;9.126;2023-08-08T13:11:42;26.90;49.40
63047;DHT22;62025;39.238;9.126;2023-08-08T13:14:08;26.90;49.80
63047;DHT22;62025;39.238;9.126;2023-08-08T13:16:34;26.80;49.90
63047;DHT22;62025;39.238;9.126;2023-08-08T13:19:00;26.70;49.30
63047;DHT22;62025;39.238;9.126;2023-08-08T13:21:27;26.40;50.10
63047;DHT22;62025;39.238;9.126;2023-08-08T13:23:53;26.70;49.80
63047;DHT22;62025;39.238;9.126;2023-08-08T13:26:19;26.80;49.50
63047;DHT22;62025;39.238;9.126;2023-08-08T13:28:45;26.70;48.80
63047;DHT22;62025;39.238;9.126;2023-08-08T13:31:10;26.50;49.90
63047;DHT22;62025;39.238;9.126;2023-08-08T13:33:37;26.30;49.70
63047;DHT22;62025;39.238;9.126;2023-08-08T13:36:03;26.40;49.60
63047;DHT22;62025;39.238;9.126;2023-08-08T13:38:29;26.70;49.20
63047;DHT22;62025;39.238;9.126;2023-08-08T13:40:55;26.50;48.30
63047;DHT22;62025;39.238;9.126;2023-08-08T13:43:22;26.70;48.00
63047;DHT22;62025;39.238;9.126;2023-08-08T13:45:48;26.50;48.80
63047;DHT22;62025;39.238;9.126;2023-08-08T13:48:15;26.70;48.50
63047;DHT22;62025;39.238;9.126;2023-08-08T13:50:41;26.70;48.30
63047;DHT22;62025;39.238;9.126;2023-08-08T13:53:06;26.70;47.60
63047;DHT22;62025;39.238;9.126;2023-08-08T13:55:32;26.40;47.10
63047;DHT22;62025;39.238;9.126;2023-08-08T13:58:04;26.40;47.30
63047;DHT22;62025;39.238;9.126;2023-08-08T14:00:31;26.40;47.00
63047;DHT22;62025;39.238;9.126;2023-08-08T14:02:57;26.50;47.20
63047;DHT22;62025;39.238;9.126;2023-08-08T14:05:24;26.40;47.50
63047;DHT22;62025;39.238;9.126;2023-08-08T14:07:51;26.50;46.80
63047;DHT22;62025;39.238;9.126;2023-08-08T14:10:17;26.40;46.70
63047;DHT22;62025;39.238;9.126;2023-08-08T14:12:42;26.80;46.50
63047;DHT22;62025;39.238;9.126;2023-08-08T14:15:09;27.00;46.60
63047;DHT22;62025;39.238;9.126;2023-08-08T14:17:35;26.90;47.00
63047;DHT22;62025;39.238;9.126;2023-08-08T14:20:01;27.00;46.30
63047;DHT22;62025;39.238;9.126;2023-08-08T14:22:27;27.00;45.90
63047;DHT22;62025;39.238;9.126;2023-08-08T14:24:53;27.00;44.20
63047;DHT22;62025;39.238;9.126;2023-08-08T14:27:19;27.00;43.90
63047;DHT22;62025;39.238;9.126;2023-08-08T14:29:45;27.00;41.50
63047;DHT22;62025;39.238;9.126;2023-08-08T14:32:11;27.00;40.20
63047;DHT22;62025;39.238;9.126;2023-08-08T14:34:37;27.10;38.60
63047;DHT22;62025;39.238;9.126;2023-08-08T14:37:05;27.00;39.90
63047;DHT22;62025;39.238;9.126;2023-08-08T14:39:31;26.90;39.90
63047;DHT22;62025;39.238;9.126;2023-08-08T14:41:58;26.90;39.10
63047;DHT22;62025;39.238;9.126;2023-08-08T14:44:24;26.80;38.80
63047;DHT22;62025;39.238;9.126;2023-08-08T14:46:50;26.70;39.50
63047;DHT22;62025;39.238;9.126;2023-08-08T14:49:16;26.80;37.50
63047;DHT22;62025;39.238;9.126;2023-08-08T14:51:43;26.80;37.70
63047;DHT22;62025;39.238;9.126;2023-08-08T14:54:09;26.90;38.40
63047;DHT22;62025;39.238;9.126;2023-08-08T14:56:34;26.90;37.70
63047;DHT22;62025;39.238;9.126;2023-08-08T14:59:01;26.90;39.60
63047;DHT22;62025;39.238;9.126;2023-08-08T15:01:27;27.20;41.80
63047;DHT22;62025;39.238;9.126;2023-08-08T15:03:54;27.20;42.90
63047;DHT22;62025;39.238;9.126;2023-08-08T15:06:21;27.20;42.40
63047;DHT22;62025;39.238;9.126;2023-08-08T15:08:47;27.10;43.30
63047;DHT22;62025;39.238;9.126;2023-08-08T15:11:16;26.90;45.00
63047;DHT22;62025;39.238;9.126;2023-08-08T15:13:43;26.90;45.60
63047;DHT22;62025;39.238;9.126;2023-08-08T15:16:09;26.90;46.10
63047;DHT22;62025;39.238;9.126;2023-08-08T15:18:35;26.70;46.40
63047;DHT22;62025;39.238;9.126;2023-08-08T15:21:01;26.70;46.20
63047;DHT22;62025;39.238;9.126;2023-08-08T15:23:28;26.70;46.50
63047;DHT22;62025;39.238;9.126;2023-08-08T15:25:54;26.60;46.80
63047;DHT22;62025;39.238;9.126;2023-08-08T15:28:20;26.80;46.20
63047;DHT22;62025;39.238;9.126;2023-08-08T15:30:46;26.60;46.80
63047;DHT22;62025;39.238;9.126;2023-08-08T15:33:12;26.60;46.00
63047;DHT22;62025;39.238;9.126;2023-08-08T15:35:38;26.60;46.00
63047;DHT22;62025;39.238;9.126;2023-08-08T15:38:04;26.60;45.10
63047;DHT22;62025;39.238;9.126;2023-08-08T15:40:31;26.40;44.90